createdAt,value
2023-11-11T00:01:59.070Z,94693.91
2023-11-11T00:04:26.586Z,94694.34
2023-11-11T00:06:53.708Z,94690.34
2023-11-11T00:09:20.789Z,94683.28
2023-11-11T00:11:49.335Z,94678.25
2023-11-11T00:14:18.142Z,94679.50
2023-11-11T00:16:45.461Z,94677.78
2023-11-11T00:19:12.628Z,94689.78
2023-11-11T00:21:39.909Z,94692.19
2023-11-11T00:24:07.495Z,94696.72
2023-11-11T00:26:34.932Z,94697.63
2023-11-11T00:29:03.379Z,94703.78
2023-11-11T00:31:30.618Z,94715.63
2023-11-11T00:33:57.611Z,94718.28
2023-11-11T00:36:24.695Z,94723.88
2023-11-11T00:38:51.714Z,94725.72
2023-11-11T00:41:18.864Z,94734.59
2023-11-11T00:43:45.811Z,94733.34
2023-11-11T00:46:14.418Z,94729.34
2023-11-11T00:48:41.683Z,94734.81
2023-11-11T00:51:09.031Z,94732.44
2023-11-11T00:53:36.139Z,94739.50
2023-11-11T00:56:03.966Z,94743.94
2023-11-11T00:58:31.168Z,94750.41
2023-11-11T01:00:58.302Z,94744.03
2023-11-11T01:03:26.935Z,94733.84
2023-11-11T01:05:54.052Z,94757.03
2023-11-11T01:08:21.355Z,94741.38
2023-11-11T01:10:48.473Z,94749.81
2023-11-11T01:13:15.631Z,94741.88
2023-11-11T01:15:42.756Z,94740.81
2023-11-11T01:18:09.953Z,94747.69
2023-11-11T01:20:38.608Z,94745.63
2023-11-11T01:23:05.740Z,94741.97
2023-11-11T01:25:32.940Z,94740.63
2023-11-11T01:28:00.059Z,94746.88
2023-11-11T01:30:27.106Z,94751.78
2023-11-11T01:32:54.354Z,94747.78
2023-11-11T01:35:21.408Z,94744.81
2023-11-11T01:37:49.868Z,94749.97
2023-11-11T01:40:17.126Z,94738.91
2023-11-11T01:42:44.142Z,94739.66
2023-11-11T01:45:11.314Z,94729.88
2023-11-11T01:47:38.860Z,94725.63
2023-11-11T01:50:07.641Z,94730.88
2023-11-11T01:52:35.222Z,94727.69
2023-11-11T01:55:06.793Z,94735.31
2023-11-11T01:57:34.057Z,94728.41
2023-11-11T02:00:03.078Z,94752.44
2023-11-11T02:02:30.162Z,94754.41
2023-11-11T02:04:57.566Z,94745.97
2023-11-11T02:07:24.782Z,94747.59
2023-11-11T02:09:51.912Z,94758.66
2023-11-11T02:12:20.876Z,94748.31
2023-11-11T02:14:48.637Z,94758.63
2023-11-11T02:17:15.689Z,94752.69
2023-11-11T02:19:42.607Z,94746.44
2023-11-11T02:22:09.823Z,94743.22
2023-11-11T02:24:41.332Z,94739.00
2023-11-11T02:27:08.420Z,94743.56
2023-11-11T02:29:44.488Z,94747.44
2023-11-11T02:32:11.578Z,94728.88
2023-11-11T02:34:38.716Z,94722.75
2023-11-11T02:37:05.914Z,94724.31
2023-11-11T02:39:33.032Z,94726.59
2023-11-11T02:42:01.376Z,94726.97
2023-11-11T02:44:28.280Z,94722.03
2023-11-11T02:46:55.351Z,94719.16
2023-11-11T02:49:22.326Z,94718.69
2023-11-11T02:51:49.346Z,94722.28
2023-11-11T02:54:16.528Z,94709.06
2023-11-11T02:56:43.592Z,94716.22
2023-11-11T02:59:12.149Z,94721.41
2023-11-11T03:01:39.265Z,94721.34
2023-11-11T03:04:06.942Z,94724.22
2023-11-11T03:06:34.464Z,94730.91
2023-11-11T03:09:01.543Z,94724.78
2023-11-11T03:11:28.781Z,94721.66
2023-11-11T03:13:55.767Z,94727.50
2023-11-11T03:16:33.506Z,94728.13
2023-11-11T03:19:00.584Z,94726.53
2023-11-11T03:21:27.640Z,94731.31
2023-11-11T03:23:54.641Z,94727.25
2023-11-11T03:26:21.676Z,94724.22
2023-11-11T03:28:48.679Z,94721.09
2023-11-11T03:31:15.781Z,94728.38
2023-11-11T03:33:44.296Z,94726.53
2023-11-11T03:36:11.339Z,94719.25
2023-11-11T03:38:38.314Z,94723.97
2023-11-11T03:41:05.332Z,94722.84
2023-11-11T03:43:32.262Z,94727.00
2023-11-11T03:45:59.325Z,94725.56
2023-11-11T03:48:26.441Z,94723.97
2023-11-11T03:50:54.899Z,94728.81
2023-11-11T03:53:21.819Z,94723.72
2023-11-11T03:55:49.195Z,94727.69
2023-11-11T03:58:16.717Z,94726.25
2023-11-11T04:00:43.862Z,94737.25
2023-11-11T04:03:11.047Z,94740.25
2023-11-11T04:05:38.251Z,94757.25
2023-11-11T04:08:06.782Z,94758.13
2023-11-11T04:10:33.850Z,94764.69
2023-11-11T04:13:02.712Z,94759.13
2023-11-11T04:15:29.760Z,94761.25
2023-11-11T04:17:56.802Z,94769.09
2023-11-11T04:20:23.828Z,94776.97
2023-11-11T04:22:50.832Z,94782.63
2023-11-11T04:25:19.371Z,94775.59
2023-11-11T04:27:46.453Z,94787.03
2023-11-11T04:30:13.675Z,94782.81
2023-11-11T04:32:41.692Z,94796.44
2023-11-11T04:35:08.925Z,94788.56
2023-11-11T04:37:36.063Z,94792.63
2023-11-11T04:40:03.141Z,94787.31
2023-11-11T04:42:31.610Z,94794.69
2023-11-11T04:44:58.591Z,94791.25
2023-11-11T04:47:25.543Z,94798.34
2023-11-11T04:49:52.558Z,94794.69
2023-11-11T04:52:20.007Z,94805.09
2023-11-11T04:54:46.953Z,94797.41
2023-11-11T04:57:14.038Z,94797.88
2023-11-11T04:59:42.412Z,94809.59
2023-11-11T05:02:09.423Z,94802.84
2023-11-11T05:04:36.472Z,94807.59
2023-11-11T05:07:03.728Z,94813.34
2023-11-11T05:09:30.833Z,94812.44
2023-11-11T05:11:58.089Z,94822.75
2023-11-11T05:14:26.430Z,94815.69
2023-11-11T05:16:54.902Z,94821.09
2023-11-11T05:19:22.330Z,94827.41
2023-11-11T05:21:49.486Z,94828.28
2023-11-11T05:24:16.781Z,94833.94
2023-11-11T05:26:43.956Z,94830.41
2023-11-11T05:29:11.021Z,94839.47
2023-11-11T05:31:38.217Z,94841.94
2023-11-11T05:34:06.798Z,94845.06
2023-11-11T05:36:34.100Z,94841.91
2023-11-11T05:39:01.239Z,94848.63
2023-11-11T05:41:28.450Z,94853.91
2023-11-11T05:43:55.543Z,94861.09
2023-11-11T05:46:22.576Z,94863.16
2023-11-11T05:48:49.610Z,94867.03
2023-11-11T05:51:18.177Z,94872.56
2023-11-11T05:53:45.209Z,94866.84
2023-11-11T05:56:12.155Z,94887.44
2023-11-11T05:58:39.066Z,94887.28
2023-11-11T06:01:06.763Z,94885.69
2023-11-11T06:03:34.161Z,94886.16
2023-11-11T06:06:02.385Z,94891.97
2023-11-11T06:08:31.033Z,94893.59
2023-11-11T06:10:58.070Z,94897.94
2023-11-11T06:13:25.035Z,94892.66
2023-11-11T06:15:52.406Z,94889.63
2023-11-11T06:18:19.487Z,94897.28
2023-11-11T06:20:46.442Z,94893.38
2023-11-11T06:25:44.822Z,94895.22
2023-11-11T06:28:11.849Z,94893.03
2023-11-11T06:30:38.884Z,94900.72
2023-11-11T06:33:06.170Z,94911.44
2023-11-11T06:35:34.546Z,94905.38
2023-11-11T06:38:01.581Z,94917.47
2023-11-11T06:40:28.877Z,94917.03
2023-11-11T06:42:57.548Z,94929.50
2023-11-11T06:45:24.787Z,94927.91
2023-11-11T06:47:52.159Z,94928.16
2023-11-11T06:50:19.546Z,94921.84
2023-11-11T06:52:46.772Z,94920.59
2023-11-11T06:55:14.208Z,94933.06
2023-11-11T06:57:41.277Z,94928.47
2023-11-11T07:00:10.816Z,94940.59
2023-11-11T07:02:37.790Z,94943.91
2023-11-11T07:05:05.384Z,94948.16
2023-11-11T07:07:32.381Z,94951.13
2023-11-11T07:09:59.340Z,94957.88
2023-11-11T07:12:26.360Z,94961.75
2023-11-11T07:14:53.393Z,94964.59
2023-11-11T07:17:21.772Z,94973.06
2023-11-11T07:19:48.725Z,94969.63
2023-11-11T07:24:45.618Z,94971.72
2023-11-11T07:27:12.633Z,94969.19
2023-11-11T07:29:39.790Z,94978.22
2023-11-11T07:32:07.294Z,94989.09
2023-11-11T07:34:35.610Z,94991.34
2023-11-11T07:37:02.563Z,94993.88
2023-11-11T07:39:29.571Z,94994.72
2023-11-11T07:41:56.692Z,95009.00
2023-11-11T07:44:23.656Z,95009.34
2023-11-11T07:46:50.713Z,95008.63
2023-11-11T07:49:17.628Z,95012.19
2023-11-11T07:51:46.045Z,95018.72
2023-11-11T07:54:13.021Z,95018.72
2023-11-11T07:56:40.004Z,95017.81
2023-11-11T07:59:07.128Z,95018.59
2023-11-11T08:01:34.436Z,95014.34
2023-11-11T08:04:01.490Z,95009.53
2023-11-11T08:06:28.496Z,95016.53
2023-11-11T08:08:57.093Z,95008.22
2023-11-11T08:11:24.548Z,95014.94
2023-11-11T08:13:51.758Z,95027.50
2023-11-11T08:16:19.141Z,95024.91
2023-11-11T08:18:48.436Z,95026.97
2023-11-11T08:21:16.331Z,95015.28
2023-11-11T08:23:43.253Z,95018.38
2023-11-11T08:26:11.582Z,95014.47
2023-11-11T08:28:38.615Z,95013.91
2023-11-11T08:31:05.755Z,95000.88
2023-11-11T08:33:32.797Z,95003.25
2023-11-11T08:35:59.909Z,95009.56
2023-11-11T08:38:27.159Z,95002.00
2023-11-11T08:40:54.331Z,95001.69
2023-11-11T08:43:22.728Z,95004.31
2023-11-11T08:45:49.761Z,94999.25
2023-11-11T08:48:16.941Z,95006.59
2023-11-11T08:50:43.952Z,94998.19
2023-11-11T08:53:10.989Z,95001.66
2023-11-11T08:55:37.935Z,95005.69
2023-11-11T08:58:04.940Z,95010.03
2023-11-11T09:00:33.346Z,95018.59
2023-11-11T09:03:00.454Z,95010.50
2023-11-11T09:05:27.753Z,95010.06
2023-11-11T09:07:54.777Z,95010.88
2023-11-11T09:10:21.920Z,95011.91
2023-11-11T09:12:48.998Z,95016.50
2023-11-11T09:15:16.460Z,95017.88
2023-11-11T09:17:44.917Z,95028.63
2023-11-11T09:20:12.367Z,95020.94
2023-11-11T09:22:39.456Z,95019.03
2023-11-11T09:25:07.397Z,95006.31
2023-11-11T09:27:34.586Z,95021.19
2023-11-11T09:30:01.747Z,95033.91
2023-11-11T09:32:28.739Z,95041.56
2023-11-11T09:34:57.130Z,95041.44
2023-11-11T09:37:24.071Z,95040.31
2023-11-11T09:39:51.091Z,95043.97
2023-11-11T09:42:18.328Z,95051.41
2023-11-11T09:47:23.254Z,95049.91
2023-11-11T09:49:50.339Z,95053.75
2023-11-11T09:52:20.736Z,95052.09
2023-11-11T09:54:48.382Z,95043.75
2023-11-11T09:57:19.754Z,95041.63
2023-11-11T09:59:49.834Z,95051.22
2023-11-11T10:02:17.763Z,95050.97
2023-11-11T10:04:44.809Z,95057.44
2023-11-11T10:07:12.399Z,95053.47
2023-11-11T10:09:41.088Z,95051.84
2023-11-11T10:12:09.122Z,95062.59
2023-11-11T10:14:39.290Z,95059.38
2023-11-11T10:17:09.643Z,95055.38
2023-11-11T10:19:50.945Z,95061.38
2023-11-11T10:22:24.351Z,95055.75
2023-11-11T10:24:52.800Z,95060.13
2023-11-11T10:27:19.833Z,95056.91
2023-11-11T10:29:47.965Z,95060.13
2023-11-11T10:32:15.009Z,95061.84
2023-11-11T10:34:42.411Z,95058.88
2023-11-11T10:37:09.539Z,95059.06
2023-11-11T10:39:36.950Z,95047.09
2023-11-11T10:42:05.941Z,95051.03
2023-11-11T10:44:32.990Z,95042.78
2023-11-11T10:47:00.328Z,95054.50
2023-11-11T10:49:28.035Z,95053.84
2023-11-11T10:51:56.617Z,95045.03
2023-11-11T10:54:25.740Z,95044.56
2023-11-11T10:56:53.734Z,95043.75
2023-11-11T10:59:23.542Z,95034.66
2023-11-11T11:01:50.827Z,95032.66
2023-11-11T11:04:28.485Z,95015.34
2023-11-11T11:07:04.356Z,95023.31
2023-11-11T11:09:41.222Z,95025.25
2023-11-11T11:12:19.966Z,95011.50
2023-11-11T11:14:50.545Z,95020.63
2023-11-11T11:17:17.817Z,95012.75
2023-11-11T11:19:54.782Z,95015.16
2023-11-11T11:22:24.807Z,95015.66
2023-11-11T11:24:51.852Z,95010.88
2023-11-11T11:27:20.267Z,95004.84
2023-11-11T11:29:48.857Z,95012.38
2023-11-11T11:32:23.699Z,95011.69
2023-11-11T11:35:25.816Z,95014.19
2023-11-11T11:37:54.938Z,95003.50
2023-11-11T11:40:23.558Z,94998.25
2023-11-11T11:42:50.975Z,94997.72
2023-11-11T11:45:29.845Z,95005.47
2023-11-11T11:47:57.380Z,95003.31
2023-11-11T11:50:24.487Z,95012.72
2023-11-11T11:52:51.474Z,95014.41
2023-11-11T11:55:18.674Z,95009.78
2023-11-11T11:57:55.198Z,95013.59
2023-11-11T12:00:23.794Z,95006.00
2023-11-11T12:02:53.522Z,95013.16
2023-11-11T12:05:21.149Z,95020.75
2023-11-11T12:07:52.453Z,95013.97
2023-11-11T12:10:19.674Z,95014.84
2023-11-11T12:12:46.753Z,95013.47
2023-11-11T12:15:15.974Z,95012.44
2023-11-11T12:17:45.575Z,95018.78
2023-11-11T12:20:12.843Z,95014.53
2023-11-11T12:22:43.206Z,95012.94
2023-11-11T12:25:10.663Z,95005.69
2023-11-11T12:27:37.827Z,95001.00
2023-11-11T12:30:18.305Z,95003.00
2023-11-11T12:33:02.058Z,94992.84
2023-11-11T12:35:29.852Z,94988.97
2023-11-11T12:37:57.087Z,94987.50
2023-11-11T12:40:31.187Z,94983.31
2023-11-11T12:42:58.364Z,94985.38
2023-11-11T12:45:25.447Z,94977.16
2023-11-11T12:47:54.568Z,94967.31
2023-11-11T12:50:31.474Z,94974.78
2023-11-11T12:53:05.922Z,94969.38
2023-11-11T12:55:32.918Z,94971.31
2023-11-11T12:58:22.010Z,94978.63
2023-11-11T13:00:50.160Z,94977.16
2023-11-11T13:03:23.161Z,94976.56
2023-11-11T13:05:50.561Z,94972.91
2023-11-11T13:08:17.508Z,94973.47
2023-11-11T13:10:45.728Z,94974.75
2023-11-11T13:13:13.768Z,94974.09
2023-11-11T13:15:41.420Z,94981.41
2023-11-11T13:18:08.509Z,94971.25
2023-11-11T13:20:37.045Z,94974.53
2023-11-11T13:23:03.999Z,94975.66
2023-11-11T13:25:31.041Z,94968.91
2023-11-11T13:27:58.029Z,94971.78
2023-11-11T13:30:24.987Z,94977.69
2023-11-11T13:32:52.149Z,94968.59
2023-11-11T13:35:19.247Z,94967.88
2023-11-11T13:37:47.893Z,94970.88
2023-11-11T13:40:14.908Z,94967.69
2023-11-11T13:42:41.856Z,94967.31
2023-11-11T13:45:09.496Z,94970.53
2023-11-11T13:47:36.563Z,94966.19
2023-11-11T13:50:03.900Z,94969.75
2023-11-11T13:52:30.944Z,94958.09
2023-11-11T13:54:59.384Z,94967.22
2023-11-11T13:57:26.358Z,94969.75
2023-11-11T13:59:53.346Z,94972.53
2023-11-11T14:02:20.402Z,94966.94
2023-11-11T14:04:47.660Z,94971.06
2023-11-11T14:07:14.909Z,94973.53
2023-11-11T14:09:44.683Z,94978.34
2023-11-11T14:12:14.988Z,94983.59
2023-11-11T14:14:42.855Z,94982.66
2023-11-11T14:17:09.904Z,94984.63
2023-11-11T14:19:37.081Z,94972.50
2023-11-11T14:22:04.687Z,94976.94
2023-11-11T14:24:31.741Z,94981.06
2023-11-11T14:26:58.834Z,94980.28
2023-11-11T14:29:27.755Z,94977.09
2023-11-11T14:31:54.889Z,94976.94
2023-11-11T14:34:21.968Z,94980.38
2023-11-11T14:36:49.188Z,94989.66
2023-11-11T14:39:16.183Z,94988.84
2023-11-11T14:41:43.202Z,94995.34
2023-11-11T14:44:10.358Z,95002.31
2023-11-11T14:46:38.771Z,95011.13
2023-11-11T14:49:06.112Z,95017.75
2023-11-11T14:51:33.200Z,95018.91
2023-11-11T14:54:00.249Z,95030.44
2023-11-11T14:56:27.311Z,95030.56
2023-11-11T14:58:54.307Z,95036.63
2023-11-11T15:01:21.360Z,95043.47
2023-11-11T15:03:49.960Z,95048.81
2023-11-11T15:06:17.119Z,95052.94
2023-11-11T15:08:44.108Z,95064.59
2023-11-11T15:11:11.250Z,95067.34
2023-11-11T15:13:38.209Z,95071.44
2023-11-11T15:16:06.129Z,95074.16
2023-11-11T15:18:33.239Z,95072.88
2023-11-11T15:21:01.643Z,95070.47
2023-11-11T15:23:28.762Z,95074.00
2023-11-11T15:25:55.762Z,95071.81
2023-11-11T15:28:22.837Z,95065.25
2023-11-11T15:30:50.137Z,95062.28
2023-11-11T15:33:17.328Z,95055.22
2023-11-11T15:35:44.645Z,95046.59
2023-11-11T15:38:13.066Z,95051.03
2023-11-11T15:40:40.193Z,95052.84
2023-11-11T15:43:07.258Z,95052.44
2023-11-11T15:45:34.435Z,95057.69
2023-11-11T15:48:01.438Z,95054.69
2023-11-11T15:50:28.410Z,95048.22
2023-11-11T15:52:55.438Z,95061.53
2023-11-11T15:55:23.981Z,95054.91
2023-11-11T15:57:50.990Z,95048.22
2023-11-11T16:00:18.354Z,95036.19
2023-11-11T16:02:45.398Z,95039.22
2023-11-11T16:05:12.576Z,95048.34
2023-11-11T16:07:39.667Z,95053.59
2023-11-11T16:10:07.449Z,95055.22
2023-11-11T16:12:35.819Z,95054.19
2023-11-11T16:15:02.853Z,95054.19
2023-11-11T16:17:30.039Z,95055.22
2023-11-11T16:19:59.162Z,95043.56
2023-11-11T16:22:26.386Z,95047.19
2023-11-11T16:24:53.348Z,95048.44
2023-11-11T16:27:20.323Z,95054.72
2023-11-11T16:29:48.737Z,95060.31
2023-11-11T16:32:15.699Z,95048.69
2023-11-11T16:34:42.747Z,95053.94
2023-11-11T16:37:09.792Z,95050.50
2023-11-11T16:39:42.144Z,95058.22
2023-11-11T16:42:09.159Z,95055.47
2023-11-11T16:44:36.558Z,95051.59
2023-11-11T16:47:05.540Z,95047.13
2023-11-11T16:49:33.155Z,95051.16
2023-11-11T16:52:00.430Z,95064.44
2023-11-11T16:54:27.468Z,95074.94
2023-11-11T16:56:54.558Z,95073.78
2023-11-11T16:59:21.796Z,95079.16
2023-11-11T17:01:49.137Z,95083.59
2023-11-11T17:04:17.821Z,95097.97
2023-11-11T17:06:44.913Z,95103.00
2023-11-11T17:09:12.012Z,95106.50
2023-11-11T17:11:42.769Z,95106.44
2023-11-11T17:14:10.064Z,95106.50
2023-11-11T17:16:38.159Z,95106.50
2023-11-11T17:19:05.326Z,95113.22
2023-11-11T17:21:34.072Z,95096.06
2023-11-11T17:24:01.258Z,95092.50
2023-11-11T17:26:28.767Z,95096.34
2023-11-11T17:28:55.857Z,95100.03
2023-11-11T17:31:23.010Z,95102.25
2023-11-11T17:33:56.837Z,95095.94
2023-11-11T17:36:26.278Z,95085.44
2023-11-11T17:38:55.226Z,95086.88
2023-11-11T17:41:22.538Z,95076.81
2023-11-11T17:43:49.667Z,95073.19
2023-11-11T17:46:20.475Z,95083.81
2023-11-11T17:48:47.576Z,95084.69
2023-11-11T17:51:15.755Z,95076.22
2023-11-11T17:53:42.909Z,95076.22
2023-11-11T17:56:20.673Z,95078.34
2023-11-11T17:58:47.687Z,95079.00
2023-11-11T18:01:14.957Z,95082.03
2023-11-11T18:03:42.219Z,95076.66
2023-11-11T18:06:09.264Z,95076.28
2023-11-11T18:08:36.356Z,95076.91
2023-11-11T18:11:06.789Z,95085.78
2023-11-11T18:13:37.258Z,95082.81
2023-11-11T18:16:05.187Z,95081.00
2023-11-11T18:18:32.259Z,95079.97
2023-11-11T18:20:59.390Z,95084.25
2023-11-11T18:23:26.490Z,95084.69
2023-11-11T18:25:53.664Z,95084.31
2023-11-11T18:28:20.675Z,95080.50
2023-11-11T18:30:49.049Z,95086.97
2023-11-11T18:33:16.194Z,95087.19
2023-11-11T18:35:43.374Z,95075.31
2023-11-11T18:38:10.477Z,95075.13
2023-11-11T18:40:37.498Z,95074.97
2023-11-11T18:43:04.590Z,95073.00
2023-11-11T18:45:31.741Z,95067.16
2023-11-11T18:48:00.123Z,95066.56
2023-11-11T18:50:27.320Z,95058.56
2023-11-11T18:52:54.426Z,95058.13
2023-11-11T18:55:21.447Z,95054.69
2023-11-11T18:57:48.469Z,95058.56
2023-11-11T19:00:16.372Z,95060.81
2023-11-11T19:02:43.410Z,95057.59
2023-11-11T19:05:12.025Z,95064.88
2023-11-11T19:07:39.279Z,95063.47
2023-11-11T19:10:07.263Z,95057.19
2023-11-11T19:12:34.383Z,95060.06
2023-11-11T19:15:01.434Z,95052.44
2023-11-11T19:17:28.541Z,95053.66
2023-11-11T19:19:55.742Z,95049.66
2023-11-11T19:22:24.786Z,95045.88
2023-11-11T19:24:52.599Z,95051.72
2023-11-11T19:27:19.689Z,95052.34
2023-11-11T19:29:46.592Z,95057.81
2023-11-11T19:32:13.677Z,95068.28
2023-11-11T19:34:40.746Z,95059.25
2023-11-11T19:37:07.813Z,95062.84
2023-11-11T19:39:36.305Z,95059.28
2023-11-11T19:42:03.649Z,95066.72
2023-11-11T19:44:30.674Z,95057.69
2023-11-11T19:46:57.627Z,95052.66
2023-11-11T19:49:24.604Z,95045.81
2023-11-11T19:51:51.599Z,95054.28
2023-11-11T19:54:18.631Z,95047.03
2023-11-11T19:56:47.146Z,95050.88
2023-11-11T19:59:14.243Z,95048.44
2023-11-11T20:01:41.623Z,95040.22
2023-11-11T20:04:08.737Z,95033.59
2023-11-11T20:06:35.802Z,95031.19
2023-11-11T20:09:03.630Z,95021.75
2023-11-11T20:11:30.799Z,95007.25
2023-11-11T20:13:59.451Z,95000.03
2023-11-11T20:16:26.583Z,95000.41
2023-11-11T20:18:53.820Z,94998.59
2023-11-11T20:21:20.801Z,94994.16
2023-11-11T20:23:47.734Z,94983.09
2023-11-11T20:26:14.839Z,94982.06
2023-11-11T20:28:41.935Z,94980.28
2023-11-11T20:31:10.366Z,94979.50
2023-11-11T20:33:37.301Z,94975.47
2023-11-11T20:36:06.691Z,94972.66
2023-11-11T20:38:33.720Z,94968.69
2023-11-11T20:41:00.760Z,94953.38
2023-11-11T20:43:28.329Z,94952.97
2023-11-11T20:45:55.531Z,94946.50
2023-11-11T20:48:24.052Z,94947.53
2023-11-11T20:50:51.326Z,94957.19
2023-11-11T20:53:18.464Z,94956.19
2023-11-11T20:55:45.564Z,94951.31
2023-11-11T20:58:12.685Z,94947.53
2023-11-11T21:00:39.932Z,94945.91
2023-11-11T21:03:07.231Z,94954.94
2023-11-11T21:05:35.765Z,94961.78
2023-11-11T21:08:02.815Z,94963.19
2023-11-11T21:10:29.791Z,94953.72
2023-11-11T21:12:56.942Z,94951.69
2023-11-11T21:15:23.943Z,94950.31
2023-11-11T21:17:50.974Z,94934.44
2023-11-11T21:20:18.104Z,94935.41
2023-11-11T21:22:47.092Z,94935.66
2023-11-11T21:25:14.345Z,94931.13
2023-11-11T21:27:41.529Z,94941.38
2023-11-11T21:30:09.924Z,94933.53
2023-11-11T21:32:37.123Z,94930.09
2023-11-11T21:35:04.831Z,94949.41
2023-11-11T21:37:32.000Z,94958.84
2023-11-11T21:40:00.359Z,94977.38
2023-11-11T21:42:27.401Z,94976.94
2023-11-11T21:44:54.728Z,94976.16
2023-11-11T21:47:22.601Z,94969.72
2023-11-11T21:49:49.727Z,94974.78
2023-11-11T21:52:16.716Z,94968.34
2023-11-11T21:54:43.920Z,94964.56
2023-11-11T21:57:12.447Z,94979.84
2023-11-11T21:59:39.461Z,94977.75
2023-11-11T22:02:06.598Z,94984.41
2023-11-11T22:04:33.954Z,94959.88
2023-11-11T22:07:01.079Z,94960.69
2023-11-11T22:09:28.087Z,94952.66
2023-11-11T22:11:55.104Z,94941.81
2023-11-11T22:14:23.441Z,94931.75
2023-11-11T22:16:50.688Z,94922.13
2023-11-11T22:19:17.698Z,94902.47
2023-11-11T22:21:44.753Z,94907.75
2023-11-11T22:24:11.730Z,94906.16
2023-11-11T22:26:38.695Z,94906.91
2023-11-11T22:29:05.886Z,94902.84
2023-11-11T22:31:34.368Z,94889.56
2023-11-11T22:34:01.405Z,94892.53
2023-11-11T22:36:28.382Z,94867.19
2023-11-11T22:38:55.522Z,94851.72
2023-11-11T22:41:22.512Z,94821.91
2023-11-11T22:43:53.278Z,94839.63
2023-11-11T22:46:21.367Z,94829.50
2023-11-11T22:48:49.887Z,94806.16
2023-11-11T22:51:16.951Z,94815.16
2023-11-11T22:53:43.982Z,94802.91
2023-11-11T22:56:11.204Z,94803.66
2023-11-11T22:58:38.439Z,94823.59
2023-11-11T23:01:05.461Z,94815.53
2023-11-11T23:03:32.833Z,94826.53
2023-11-11T23:06:01.305Z,94825.28
2023-11-11T23:08:28.657Z,94826.91
2023-11-11T23:10:55.741Z,94829.94
2023-11-11T23:13:23.213Z,94823.94
2023-11-11T23:15:50.235Z,94808.84
2023-11-11T23:18:17.492Z,94801.00
2023-11-11T23:20:44.755Z,94797.81
2023-11-11T23:23:13.346Z,94806.69
2023-11-11T23:25:40.487Z,94809.22
2023-11-11T23:28:07.752Z,94820.88
2023-11-11T23:30:34.904Z,94828.69
2023-11-11T23:33:02.248Z,94827.72
2023-11-11T23:35:29.684Z,94832.53
2023-11-11T23:37:56.797Z,94816.03
2023-11-11T23:40:25.157Z,94814.81
2023-11-11T23:42:52.282Z,94804.06
2023-11-11T23:45:19.552Z,94798.19
2023-11-11T23:47:47.964Z,94808.44
2023-11-11T23:50:15.201Z,94796.53
2023-11-11T23:52:42.483Z,94784.94
2023-11-11T23:55:09.896Z,94780.72
2023-11-11T23:57:38.568Z,94778.97
